Shirley, Illinois
Current Conditions -  °F | °C
As of 3:56 AM on Sunday 23 Nov 2014 (Local Time) from KBMI Reporting Station
Broken Clouds Broken Clouds  
Wind Chill: 43°   Ceiling: 5000
Heat Index: 48°   Visibility: 10mi
Dew Point: 44°   Wind: 12mph
Humidity: 86%   Direction: 170°S
Pressure: 29.79"   Gusts: NA
Location:  40.41°N, 89.06°W
Report Text: KBMI 230956Z AUTO 17010KT 10SM BKN050 BKN060 09/07 A2979 RMK AO2 T00880066 SLP090
Loading
Personal Weather Stations






























Interactive Weather Map New forecast layout! Learn more

10-Day Weather Forecast

Advertisements
Track Severe Weather on mobile